sensor_id;sensor_type;location;lat;lon;timestamp;temperature;humidity
47805;DHT22;33568;45.286;9.900;2024-02-26T00:01:04;10.60;99.90
47805;DHT22;33568;45.286;9.900;2024-02-26T00:03:31;10.60;99.90
47805;DHT22;33568;45.286;9.900;2024-02-26T00:05:59;10.60;99.90
47805;DHT22;33568;45.286;9.900;2024-02-26T00:08:25;10.60;99.90
47805;DHT22;33568;45.286;9.900;2024-02-26T00:10:52;10.60;99.90
47805;DHT22;33568;45.286;9.900;2024-02-26T00:13:18;10.60;99.90
47805;DHT22;33568;45.286;9.900;2024-02-26T00:15:46;10.60;99.90
47805;DHT22;33568;45.286;9.900;2024-02-26T00:18:12;10.50;99.90
47805;DHT22;33568;45.286;9.900;2024-02-26T00:20:40;10.60;99.90
47805;DHT22;33568;45.286;9.900;2024-02-26T00:23:09;10.50;99.90
47805;DHT22;33568;45.286;9.900;2024-02-26T00:25:35;10.40;99.90
47805;DHT22;33568;45.286;9.900;2024-02-26T00:28:04;10.40;99.90
47805;DHT22;33568;45.286;9.900;2024-02-26T00:30:31;10.30;99.90
47805;DHT22;33568;45.286;9.900;2024-02-26T00:32:57;10.30;99.90
47805;DHT22;33568;45.286;9.900;2024-02-26T00:35:24;10.20;99.90
47805;DHT22;33568;45.286;9.900;2024-02-26T00:37:50;10.20;99.90
47805;DHT22;33568;45.286;9.900;2024-02-26T00:40:17;10.20;99.90
47805;DHT22;33568;45.286;9.900;2024-02-26T00:42:43;10.20;99.90
47805;DHT22;33568;45.286;9.900;2024-02-26T00:45:12;10.20;99.90
47805;DHT22;33568;45.286;9.900;2024-02-26T00:47:38;10.20;99.90
47805;DHT22;33568;45.286;9.900;2024-02-26T00:50:07;10.20;99.90
47805;DHT22;33568;45.286;9.900;2024-02-26T00:52:34;10.20;99.90
47805;DHT22;33568;45.286;9.900;2024-02-26T00:55:02;10.20;99.90
47805;DHT22;33568;45.286;9.900;2024-02-26T00:57:29;10.20;99.90
47805;DHT22;33568;45.286;9.900;2024-02-26T00:59:55;10.20;99.90
47805;DHT22;33568;45.286;9.900;2024-02-26T01:02:23;10.20;99.90
47805;DHT22;33568;45.286;9.900;2024-02-26T01:04:49;10.20;99.90
47805;DHT22;33568;45.286;9.900;2024-02-26T01:07:15;10.10;99.90
47805;DHT22;33568;45.286;9.900;2024-02-26T01:09:42;10.20;99.90
47805;DHT22;33568;45.286;9.900;2024-02-26T01:12:09;10.20;99.90
47805;DHT22;33568;45.286;9.900;2024-02-26T01:14:35;10.20;99.90
47805;DHT22;33568;45.286;9.900;2024-02-26T01:17:01;10.20;99.90
47805;DHT22;33568;45.286;9.900;2024-02-26T01:19:28;10.20;99.90
47805;DHT22;33568;45.286;9.900;2024-02-26T01:21:54;10.20;99.90
47805;DHT22;33568;45.286;9.900;2024-02-26T01:24:21;10.20;99.90
47805;DHT22;33568;45.286;9.900;2024-02-26T01:26:47;10.20;99.90
47805;DHT22;33568;45.286;9.900;2024-02-26T01:29:13;10.20;99.90
47805;DHT22;33568;45.286;9.900;2024-02-26T01:31:40;10.20;99.90
47805;DHT22;33568;45.286;9.900;2024-02-26T01:34:06;10.10;99.90
47805;DHT22;33568;45.286;9.900;2024-02-26T01:36:32;10.20;99.90
47805;DHT22;33568;45.286;9.900;2024-02-26T01:39:00;10.10;99.90
47805;DHT22;33568;45.286;9.900;2024-02-26T01:41:27;10.20;99.90
47805;DHT22;33568;45.286;9.900;2024-02-26T01:43:53;10.20;99.90
47805;DHT22;33568;45.286;9.900;2024-02-26T01:46:20;10.30;99.90
47805;DHT22;33568;45.286;9.900;2024-02-26T01:48:47;10.30;99.90
47805;DHT22;33568;45.286;9.900;2024-02-26T01:51:16;10.30;99.90
47805;DHT22;33568;45.286;9.900;2024-02-26T01:53:43;10.40;99.90
47805;DHT22;33568;45.286;9.900;2024-02-26T01:56:11;10.40;99.90
47805;DHT22;33568;45.286;9.900;2024-02-26T01:58:38;10.40;99.90
47805;DHT22;33568;45.286;9.900;2024-02-26T02:01:05;10.40;99.90
47805;DHT22;33568;45.286;9.900;2024-02-26T02:03:32;10.40;99.90
47805;DHT22;33568;45.286;9.900;2024-02-26T02:05:58;10.50;99.90
47805;DHT22;33568;45.286;9.900;2024-02-26T02:08:25;10.50;99.90
47805;DHT22;33568;45.286;9.900;2024-02-26T02:10:51;10.50;99.90
47805;DHT22;33568;45.286;9.900;2024-02-26T02:13:18;10.50;99.90
47805;DHT22;33568;45.286;9.900;2024-02-26T02:15:44;10.50;99.90
47805;DHT22;33568;45.286;9.900;2024-02-26T02:18:10;10.50;99.90
47805;DHT22;33568;45.286;9.900;2024-02-26T02:20:37;10.50;99.90
47805;DHT22;33568;45.286;9.900;2024-02-26T02:23:03;10.40;99.90
47805;DHT22;33568;45.286;9.900;2024-02-26T02:25:30;10.50;99.90
47805;DHT22;33568;45.286;9.900;2024-02-26T02:27:57;10.50;99.90
47805;DHT22;33568;45.286;9.900;2024-02-26T02:30:27;10.50;99.90
47805;DHT22;33568;45.286;9.900;2024-02-26T02:32:55;10.50;99.90
47805;DHT22;33568;45.286;9.900;2024-02-26T02:35:23;10.50;99.90
47805;DHT22;33568;45.286;9.900;2024-02-26T02:37:54;10.60;99.90
47805;DHT22;33568;45.286;9.900;2024-02-26T02:40:21;10.60;99.90
47805;DHT22;33568;45.286;9.900;2024-02-26T02:42:50;10.60;99.90
47805;DHT22;33568;45.286;9.900;2024-02-26T02:45:16;10.60;99.90
47805;DHT22;33568;45.286;9.900;2024-02-26T02:47:43;10.50;99.90
47805;DHT22;33568;45.286;9.900;2024-02-26T02:50:09;10.50;99.90
47805;DHT22;33568;45.286;9.900;2024-02-26T02:52:35;10.50;99.90
47805;DHT22;33568;45.286;9.900;2024-02-26T02:55:02;10.50;99.90
47805;DHT22;33568;45.286;9.900;2024-02-26T02:57:30;10.50;99.90
47805;DHT22;33568;45.286;9.900;2024-02-26T02:59:56;10.50;99.90
47805;DHT22;33568;45.286;9.900;2024-02-26T03:02:23;10.50;99.90
47805;DHT22;33568;45.286;9.900;2024-02-26T03:04:51;10.50;99.90
47805;DHT22;33568;45.286;9.900;2024-02-26T03:07:17;10.60;99.90
47805;DHT22;33568;45.286;9.900;2024-02-26T03:09:44;10.60;99.90
47805;DHT22;33568;45.286;9.900;2024-02-26T03:12:10;10.60;99.90
47805;DHT22;33568;45.286;9.900;2024-02-26T03:14:37;10.60;99.90
47805;DHT22;33568;45.286;9.900;2024-02-26T03:17:03;10.60;99.90
47805;DHT22;33568;45.286;9.900;2024-02-26T03:19:29;10.50;99.90
47805;DHT22;33568;45.286;9.900;2024-02-26T03:21:56;10.50;99.90
47805;DHT22;33568;45.286;9.900;2024-02-26T03:24:22;10.60;99.90
47805;DHT22;33568;45.286;9.900;2024-02-26T03:26:48;10.60;99.90
47805;DHT22;33568;45.286;9.900;2024-02-26T03:29:16;10.60;99.90
47805;DHT22;33568;45.286;9.900;2024-02-26T03:31:42;10.50;99.90
47805;DHT22;33568;45.286;9.900;2024-02-26T03:34:09;10.50;99.90
47805;DHT22;33568;45.286;9.900;2024-02-26T03:36:35;10.50;99.90
47805;DHT22;33568;45.286;9.900;2024-02-26T03:39:01;10.40;99.90
47805;DHT22;33568;45.286;9.900;2024-02-26T03:41:30;10.40;99.90
47805;DHT22;33568;45.286;9.900;2024-02-26T03:43:58;10.30;99.90
47805;DHT22;33568;45.286;9.900;2024-02-26T03:46:24;10.30;99.90
47805;DHT22;33568;45.286;9.900;2024-02-26T03:48:50;10.20;99.90
47805;DHT22;33568;45.286;9.900;2024-02-26T03:51:18;10.10;99.90
47805;DHT22;33568;45.286;9.900;2024-02-26T03:53:45;10.10;99.90
47805;DHT22;33568;45.286;9.900;2024-02-26T03:56:12;10.00;99.90
47805;DHT22;33568;45.286;9.900;2024-02-26T03:58:39;10.00;99.90
47805;DHT22;33568;45.286;9.900;2024-02-26T04:01:09;10.00;99.90
47805;DHT22;33568;45.286;9.900;2024-02-26T04:03:35;10.10;99.90
47805;DHT22;33568;45.286;9.900;2024-02-26T04:06:02;10.00;99.90
47805;DHT22;33568;45.286;9.900;2024-02-26T04:08:28;10.00;99.90
47805;DHT22;33568;45.286;9.900;2024-02-26T04:10:55;9.90;99.90
47805;DHT22;33568;45.286;9.900;2024-02-26T04:13:21;9.90;99.90
47805;DHT22;33568;45.286;9.900;2024-02-26T04:15:48;9.90;99.90
47805;DHT22;33568;45.286;9.900;2024-02-26T04:18:14;9.90;99.90
47805;DHT22;33568;45.286;9.900;2024-02-26T04:20:40;9.80;99.90
47805;DHT22;33568;45.286;9.900;2024-02-26T04:23:08;9.80;99.90
47805;DHT22;33568;45.286;9.900;2024-02-26T04:25:34;9.90;99.90
47805;DHT22;33568;45.286;9.900;2024-02-26T04:28:01;9.90;99.90
47805;DHT22;33568;45.286;9.900;2024-02-26T04:30:27;10.00;99.90
47805;DHT22;33568;45.286;9.900;2024-02-26T04:32:53;10.00;99.90
47805;DHT22;33568;45.286;9.900;2024-02-26T04:35:23;10.10;99.90
47805;DHT22;33568;45.286;9.900;2024-02-26T04:37:49;10.10;99.90
47805;DHT22;33568;45.286;9.900;2024-02-26T04:40:15;10.20;99.90
47805;DHT22;33568;45.286;9.900;2024-02-26T04:42:42;10.20;99.90
47805;DHT22;33568;45.286;9.900;2024-02-26T04:45:08;10.20;99.90
47805;DHT22;33568;45.286;9.900;2024-02-26T04:47:34;10.20;99.90
47805;DHT22;33568;45.286;9.900;2024-02-26T04:50:01;10.20;99.90
47805;DHT22;33568;45.286;9.900;2024-02-26T04:52:28;10.20;99.90
47805;DHT22;33568;45.286;9.900;2024-02-26T04:54:54;10.20;99.90
47805;DHT22;33568;45.286;9.900;2024-02-26T04:57:21;10.20;99.90
47805;DHT22;33568;45.286;9.900;2024-02-26T04:59:48;10.30;99.90
47805;DHT22;33568;45.286;9.900;2024-02-26T05:02:14;10.30;99.90
47805;DHT22;33568;45.286;9.900;2024-02-26T05:04:41;10.30;99.90
47805;DHT22;33568;45.286;9.900;2024-02-26T05:07:07;10.40;99.90
47805;DHT22;33568;45.286;9.900;2024-02-26T05:09:34;10.30;99.90
47805;DHT22;33568;45.286;9.900;2024-02-26T05:12:01;10.40;99.90
47805;DHT22;33568;45.286;9.900;2024-02-26T05:14:27;10.40;99.90
47805;DHT22;33568;45.286;9.900;2024-02-26T05:16:54;10.40;99.90
47805;DHT22;33568;45.286;9.900;2024-02-26T05:19:20;10.40;99.90
47805;DHT22;33568;45.286;9.900;2024-02-26T05:21:47;10.40;99.90
47805;DHT22;33568;45.286;9.900;2024-02-26T05:24:15;10.30;99.90
47805;DHT22;33568;45.286;9.900;2024-02-26T05:26:44;10.30;99.90
47805;DHT22;33568;45.286;9.900;2024-02-26T05:29:11;10.20;99.90
47805;DHT22;33568;45.286;9.900;2024-02-26T05:31:37;10.20;99.90
47805;DHT22;33568;45.286;9.900;2024-02-26T05:34:04;10.20;99.90
47805;DHT22;33568;45.286;9.900;2024-02-26T05:36:30;10.10;99.90
47805;DHT22;33568;45.286;9.900;2024-02-26T05:39:00;10.10;99.90
47805;DHT22;33568;45.286;9.900;2024-02-26T05:41:26;10.20;99.90
47805;DHT22;33568;45.286;9.900;2024-02-26T05:43:53;10.10;99.90
47805;DHT22;33568;45.286;9.900;2024-02-26T05:46:20;10.10;99.90
47805;DHT22;33568;45.286;9.900;2024-02-26T05:48:52;10.00;99.90
47805;DHT22;33568;45.286;9.900;2024-02-26T05:51:18;10.10;99.90
47805;DHT22;33568;45.286;9.900;2024-02-26T05:53:45;10.10;99.90
47805;DHT22;33568;45.286;9.900;2024-02-26T05:56:13;10.00;99.90
47805;DHT22;33568;45.286;9.900;2024-02-26T05:58:39;10.10;99.90
47805;DHT22;33568;45.286;9.900;2024-02-26T06:01:05;10.10;99.90
47805;DHT22;33568;45.286;9.900;2024-02-26T06:03:31;10.10;99.90
47805;DHT22;33568;45.286;9.900;2024-02-26T06:05:58;10.10;99.90
47805;DHT22;33568;45.286;9.900;2024-02-26T06:08:25;10.10;99.90
47805;DHT22;33568;45.286;9.900;2024-02-26T06:10:51;10.00;99.90
47805;DHT22;33568;45.286;9.900;2024-02-26T06:13:18;10.00;99.90
47805;DHT22;33568;45.286;9.900;2024-02-26T06:15:44;10.00;99.90
47805;DHT22;33568;45.286;9.900;2024-02-26T06:18:10;10.00;99.90
47805;DHT22;33568;45.286;9.900;2024-02-26T06:20:37;10.00;99.90
47805;DHT22;33568;45.286;9.900;2024-02-26T06:23:03;10.00;99.90
47805;DHT22;33568;45.286;9.900;2024-02-26T06:25:29;10.00;99.90
47805;DHT22;33568;45.286;9.900;2024-02-26T06:27:56;10.00;99.90
47805;DHT22;33568;45.286;9.900;2024-02-26T06:30:22;10.00;99.90
47805;DHT22;33568;45.286;9.900;2024-02-26T06:32:49;9.90;99.90
47805;DHT22;33568;45.286;9.900;2024-02-26T06:35:15;9.90;99.90
47805;DHT22;33568;45.286;9.900;2024-02-26T06:37:41;9.90;99.90
47805;DHT22;33568;45.286;9.900;2024-02-26T06:40:08;9.80;99.90
47805;DHT22;33568;45.286;9.900;2024-02-26T06:42:35;9.80;99.90
47805;DHT22;33568;45.286;9.900;2024-02-26T06:45:01;9.80;99.90
47805;DHT22;33568;45.286;9.900;2024-02-26T06:47:27;9.70;99.90
47805;DHT22;33568;45.286;9.900;2024-02-26T06:49:54;9.60;99.90
47805;DHT22;33568;45.286;9.900;2024-02-26T06:52:24;9.70;99.90
47805;DHT22;33568;45.286;9.900;2024-02-26T06:54:51;9.60;99.90
47805;DHT22;33568;45.286;9.900;2024-02-26T06:57:20;9.60;99.90
47805;DHT22;33568;45.286;9.900;2024-02-26T06:59:46;9.60;99.90
47805;DHT22;33568;45.286;9.900;2024-02-26T07:02:16;9.70;99.90
47805;DHT22;33568;45.286;9.900;2024-02-26T07:04:43;9.70;99.90
47805;DHT22;33568;45.286;9.900;2024-02-26T07:07:09;9.60;99.90
47805;DHT22;33568;45.286;9.900;2024-02-26T07:09:36;9.60;99.90
47805;DHT22;33568;45.286;9.900;2024-02-26T07:12:03;9.70;99.90
47805;DHT22;33568;45.286;9.900;2024-02-26T07:14:30;9.70;99.90
47805;DHT22;33568;45.286;9.900;2024-02-26T07:16:56;9.60;99.90
47805;DHT22;33568;45.286;9.900;2024-02-26T07:19:24;9.60;99.90
47805;DHT22;33568;45.286;9.900;2024-02-26T07:21:50;9.60;99.90
47805;DHT22;33568;45.286;9.900;2024-02-26T07:24:17;9.60;99.90
47805;DHT22;33568;45.286;9.900;2024-02-26T07:26:43;9.60;99.90
47805;DHT22;33568;45.286;9.900;2024-02-26T07:29:09;9.60;99.90
47805;DHT22;33568;45.286;9.900;2024-02-26T07:31:36;9.50;99.90
47805;DHT22;33568;45.286;9.900;2024-02-26T07:34:02;9.50;99.90
47805;DHT22;33568;45.286;9.900;2024-02-26T07:36:28;9.50;99.90
47805;DHT22;33568;45.286;9.900;2024-02-26T07:38:55;9.50;99.90
47805;DHT22;33568;45.286;9.900;2024-02-26T07:41:21;9.60;99.90
47805;DHT22;33568;45.286;9.900;2024-02-26T07:43:48;9.50;99.90
47805;DHT22;33568;45.286;9.900;2024-02-26T07:46:15;9.50;99.90
47805;DHT22;33568;45.286;9.900;2024-02-26T07:48:41;9.50;99.90
47805;DHT22;33568;45.286;9.900;2024-02-26T07:51:08;9.50;99.90
47805;DHT22;33568;45.286;9.900;2024-02-26T07:53:34;9.50;99.90
47805;DHT22;33568;45.286;9.900;2024-02-26T07:56:00;9.50;99.90
47805;DHT22;33568;45.286;9.900;2024-02-26T07:58:27;9.50;99.90
47805;DHT22;33568;45.286;9.900;2024-02-26T08:00:53;9.50;99.90
47805;DHT22;33568;45.286;9.900;2024-02-26T08:03:20;9.50;99.90
47805;DHT22;33568;45.286;9.900;2024-02-26T08:05:46;9.50;99.90
47805;DHT22;33568;45.286;9.900;2024-02-26T08:08:12;9.50;99.90
47805;DHT22;33568;45.286;9.900;2024-02-26T08:10:39;9.40;99.90
47805;DHT22;33568;45.286;9.900;2024-02-26T08:13:05;9.50;99.90
47805;DHT22;33568;45.286;9.900;2024-02-26T08:15:32;9.40;99.90
47805;DHT22;33568;45.286;9.900;2024-02-26T08:18:01;9.50;99.90
47805;DHT22;33568;45.286;9.900;2024-02-26T08:20:31;9.50;99.90
47805;DHT22;33568;45.286;9.900;2024-02-26T08:22:57;9.50;99.90
47805;DHT22;33568;45.286;9.900;2024-02-26T08:25:24;9.50;99.90
47805;DHT22;33568;45.286;9.900;2024-02-26T08:27:50;9.50;99.90
47805;DHT22;33568;45.286;9.900;2024-02-26T08:30:17;9.50;99.90
47805;DHT22;33568;45.286;9.900;2024-02-26T08:32:44;9.50;99.90
47805;DHT22;33568;45.286;9.900;2024-02-26T08:35:11;9.60;99.90
47805;DHT22;33568;45.286;9.900;2024-02-26T08:37:37;9.60;99.90
47805;DHT22;33568;45.286;9.900;2024-02-26T08:40:05;9.60;99.90
47805;DHT22;33568;45.286;9.900;2024-02-26T08:42:31;9.70;99.90
47805;DHT22;33568;45.286;9.900;2024-02-26T08:44:58;9.60;99.90
47805;DHT22;33568;45.286;9.900;2024-02-26T08:47:27;9.60;99.90
47805;DHT22;33568;45.286;9.900;2024-02-26T08:49:54;9.60;99.90
47805;DHT22;33568;45.286;9.900;2024-02-26T08:52:20;9.70;99.90
47805;DHT22;33568;45.286;9.900;2024-02-26T08:54:48;9.70;99.90
47805;DHT22;33568;45.286;9.900;2024-02-26T08:57:14;9.80;99.90
47805;DHT22;33568;45.286;9.900;2024-02-26T08:59:42;9.80;99.90
47805;DHT22;33568;45.286;9.900;2024-02-26T09:02:08;9.70;99.90
47805;DHT22;33568;45.286;9.900;2024-02-26T09:04:35;9.80;99.90
47805;DHT22;33568;45.286;9.900;2024-02-26T09:07:02;9.80;99.90
47805;DHT22;33568;45.286;9.900;2024-02-26T09:09:28;9.80;99.90
47805;DHT22;33568;45.286;9.900;2024-02-26T09:11:55;9.80;99.90
47805;DHT22;33568;45.286;9.900;2024-02-26T09:14:21;9.70;99.90
47805;DHT22;33568;45.286;9.900;2024-02-26T09:16:48;9.70;99.90
47805;DHT22;33568;45.286;9.900;2024-02-26T09:19:14;9.70;99.90
47805;DHT22;33568;45.286;9.900;2024-02-26T09:21:44;9.70;99.90
47805;DHT22;33568;45.286;9.900;2024-02-26T09:24:12;9.80;99.90
47805;DHT22;33568;45.286;9.900;2024-02-26T09:26:38;9.80;99.90
47805;DHT22;33568;45.286;9.900;2024-02-26T09:29:04;9.80;99.90
47805;DHT22;33568;45.286;9.900;2024-02-26T09:31:31;9.90;99.90
47805;DHT22;33568;45.286;9.900;2024-02-26T09:33:58;9.90;99.90
47805;DHT22;33568;45.286;9.900;2024-02-26T09:36:24;9.90;99.90
47805;DHT22;33568;45.286;9.900;2024-02-26T09:38:51;9.90;99.90
47805;DHT22;33568;45.286;9.900;2024-02-26T09:41:17;9.90;99.90
47805;DHT22;33568;45.286;9.900;2024-02-26T09:43:44;9.90;99.90
47805;DHT22;33568;45.286;9.900;2024-02-26T09:46:12;9.90;99.90
47805;DHT22;33568;45.286;9.900;2024-02-26T09:48:42;9.90;99.90
47805;DHT22;33568;45.286;9.900;2024-02-26T09:51:10;10.00;99.90
47805;DHT22;33568;45.286;9.900;2024-02-26T09:53:39;9.90;99.90
47805;DHT22;33568;45.286;9.900;2024-02-26T09:56:09;10.00;99.90
47805;DHT22;33568;45.286;9.900;2024-02-26T09:58:38;10.00;99.90
47805;DHT22;33568;45.286;9.900;2024-02-26T10:01:10;10.00;99.90
47805;DHT22;33568;45.286;9.900;2024-02-26T10:03:51;10.00;99.90
47805;DHT22;33568;45.286;9.900;2024-02-26T10:06:18;10.00;99.90
47805;DHT22;33568;45.286;9.900;2024-02-26T10:08:45;10.00;99.90
47805;DHT22;33568;45.286;9.900;2024-02-26T10:11:13;10.00;99.90
47805;DHT22;33568;45.286;9.900;2024-02-26T10:13:42;10.00;99.90
47805;DHT22;33568;45.286;9.900;2024-02-26T10:16:08;10.00;99.90
47805;DHT22;33568;45.286;9.900;2024-02-26T10:18:51;9.90;99.90
47805;DHT22;33568;45.286;9.900;2024-02-26T10:21:20;9.90;99.90
47805;DHT22;33568;45.286;9.900;2024-02-26T10:23:47;9.90;99.90
47805;DHT22;33568;45.286;9.900;2024-02-26T10:26:14;9.90;99.90
47805;DHT22;33568;45.286;9.900;2024-02-26T10:28:42;9.90;99.90
47805;DHT22;33568;45.286;9.900;2024-02-26T10:31:10;9.90;99.90
47805;DHT22;33568;45.286;9.900;2024-02-26T10:33:37;10.00;99.90
47805;DHT22;33568;45.286;9.900;2024-02-26T10:36:05;9.90;99.90
47805;DHT22;33568;45.286;9.900;2024-02-26T10:38:38;9.90;99.90
47805;DHT22;33568;45.286;9.900;2024-02-26T10:41:06;9.90;99.90
47805;DHT22;33568;45.286;9.900;2024-02-26T10:43:32;10.00;99.90
47805;DHT22;33568;45.286;9.900;2024-02-26T10:45:59;9.90;99.90
47805;DHT22;33568;45.286;9.900;2024-02-26T10:48:25;9.90;99.90
47805;DHT22;33568;45.286;9.900;2024-02-26T10:50:51;9.90;99.90
47805;DHT22;33568;45.286;9.900;2024-02-26T10:53:22;10.00;99.90
47805;DHT22;33568;45.286;9.900;2024-02-26T10:55:54;10.00;99.90
47805;DHT22;33568;45.286;9.900;2024-02-26T10:58:21;10.00;99.90
47805;DHT22;33568;45.286;9.900;2024-02-26T11:00:50;10.00;99.90
47805;DHT22;33568;45.286;9.900;2024-02-26T11:03:17;10.00;99.90
47805;DHT22;33568;45.286;9.900;2024-02-26T11:05:49;10.00;99.90
47805;DHT22;33568;45.286;9.900;2024-02-26T11:08:18;9.90;99.90
47805;DHT22;33568;45.286;9.900;2024-02-26T11:10:47;10.00;99.90
47805;DHT22;33568;45.286;9.900;2024-02-26T11:13:15;10.00;99.90
47805;DHT22;33568;45.286;9.900;2024-02-26T11:15:46;10.00;99.90
47805;DHT22;33568;45.286;9.900;2024-02-26T11:18:15;10.00;99.90
47805;DHT22;33568;45.286;9.900;2024-02-26T11:20:43;10.00;99.90
47805;DHT22;33568;45.286;9.900;2024-02-26T11:23:09;9.90;99.90
47805;DHT22;33568;45.286;9.900;2024-02-26T11:25:36;9.90;99.90
47805;DHT22;33568;45.286;9.900;2024-02-26T11:28:13;9.80;99.90
47805;DHT22;33568;45.286;9.900;2024-02-26T11:30:44;9.80;99.90
47805;DHT22;33568;45.286;9.900;2024-02-26T11:33:12;9.90;99.90
47805;DHT22;33568;45.286;9.900;2024-02-26T11:35:40;9.80;99.90
47805;DHT22;33568;45.286;9.900;2024-02-26T11:38:07;9.80;99.90
47805;DHT22;33568;45.286;9.900;2024-02-26T11:40:38;9.70;99.90
47805;DHT22;33568;45.286;9.900;2024-02-26T11:43:05;9.70;99.90
47805;DHT22;33568;45.286;9.900;2024-02-26T11:48:22;9.80;99.90
47805;DHT22;33568;45.286;9.900;2024-02-26T11:50:53;9.70;99.90
47805;DHT22;33568;45.286;9.900;2024-02-26T11:58:57;9.60;99.90
47805;DHT22;33568;45.286;9.900;2024-02-26T12:04:19;9.50;99.90
47805;DHT22;33568;45.286;9.900;2024-02-26T12:06:56;9.50;99.90
47805;DHT22;33568;45.286;9.900;2024-02-26T12:12:09;9.30;99.90
47805;DHT22;33568;45.286;9.900;2024-02-26T12:14:40;9.40;99.90
47805;DHT22;33568;45.286;9.900;2024-02-26T12:17:19;9.40;99.90
47805;DHT22;33568;45.286;9.900;2024-02-26T12:19:45;9.30;99.90
47805;DHT22;33568;45.286;9.900;2024-02-26T12:22:15;9.30;99.90
47805;DHT22;33568;45.286;9.900;2024-02-26T12:24:43;9.20;99.90
47805;DHT22;33568;45.286;9.900;2024-02-26T12:27:09;9.30;99.90
47805;DHT22;33568;45.286;9.900;2024-02-26T12:29:36;9.30;99.90
47805;DHT22;33568;45.286;9.900;2024-02-26T12:32:03;9.30;99.90
47805;DHT22;33568;45.286;9.900;2024-02-26T12:34:31;9.20;99.90
47805;DHT22;33568;45.286;9.900;2024-02-26T12:36:57;9.30;99.90
47805;DHT22;33568;45.286;9.900;2024-02-26T12:39:24;9.30;99.90
47805;DHT22;33568;45.286;9.900;2024-02-26T12:41:50;9.30;99.90
47805;DHT22;33568;45.286;9.900;2024-02-26T12:44:18;9.20;99.90
47805;DHT22;33568;45.286;9.900;2024-02-26T12:46:44;9.30;99.90
47805;DHT22;33568;45.286;9.900;2024-02-26T12:49:15;9.30;99.90
47805;DHT22;33568;45.286;9.900;2024-02-26T12:51:44;9.20;99.90
47805;DHT22;33568;45.286;9.900;2024-02-26T12:54:12;9.20;99.90
47805;DHT22;33568;45.286;9.900;2024-02-26T12:56:39;9.30;99.90
47805;DHT22;33568;45.286;9.900;2024-02-26T12:59:06;9.30;99.90
47805;DHT22;33568;45.286;9.900;2024-02-26T13:01:33;9.30;99.90
47805;DHT22;33568;45.286;9.900;2024-02-26T13:03:59;9.40;99.90
47805;DHT22;33568;45.286;9.900;2024-02-26T13:06:32;9.40;99.90
47805;DHT22;33568;45.286;9.900;2024-02-26T13:09:00;9.50;99.90
47805;DHT22;33568;45.286;9.900;2024-02-26T13:11:28;9.50;99.90
47805;DHT22;33568;45.286;9.900;2024-02-26T13:13:55;9.50;99.90
47805;DHT22;33568;45.286;9.900;2024-02-26T13:16:24;9.50;99.90
47805;DHT22;33568;45.286;9.900;2024-02-26T13:18:51;9.50;99.90
47805;DHT22;33568;45.286;9.900;2024-02-26T13:21:18;9.50;99.90
47805;DHT22;33568;45.286;9.900;2024-02-26T13:23:49;9.50;99.90
47805;DHT22;33568;45.286;9.900;2024-02-26T13:26:16;9.40;99.90
47805;DHT22;33568;45.286;9.900;2024-02-26T13:28:43;9.40;99.90
47805;DHT22;33568;45.286;9.900;2024-02-26T13:31:09;9.30;99.90
47805;DHT22;33568;45.286;9.900;2024-02-26T13:33:35;9.30;99.90
47805;DHT22;33568;45.286;9.900;2024-02-26T13:36:02;9.30;99.90
47805;DHT22;33568;45.286;9.900;2024-02-26T13:38:29;9.30;99.90
47805;DHT22;33568;45.286;9.900;2024-02-26T13:40:55;9.30;99.90
47805;DHT22;33568;45.286;9.900;2024-02-26T13:43:21;9.30;99.90
47805;DHT22;33568;45.286;9.900;2024-02-26T13:45:48;9.40;99.90
47805;DHT22;33568;45.286;9.900;2024-02-26T13:48:15;9.40;99.90
47805;DHT22;33568;45.286;9.900;2024-02-26T13:50:42;9.40;99.90
47805;DHT22;33568;45.286;9.900;2024-02-26T13:53:12;9.40;99.90
47805;DHT22;33568;45.286;9.900;2024-02-26T13:55:40;9.40;99.90
47805;DHT22;33568;45.286;9.900;2024-02-26T13:58:08;9.40;99.90
47805;DHT22;33568;45.286;9.900;2024-02-26T14:00:37;9.50;99.90
47805;DHT22;33568;45.286;9.900;2024-02-26T14:03:03;9.50;99.90
47805;DHT22;33568;45.286;9.900;2024-02-26T14:05:30;9.50;99.90
47805;DHT22;33568;45.286;9.900;2024-02-26T14:07:56;9.50;99.90
47805;DHT22;33568;45.286;9.900;2024-02-26T14:10:24;9.50;99.90
47805;DHT22;33568;45.286;9.900;2024-02-26T14:12:50;9.50;99.90
47805;DHT22;33568;45.286;9.900;2024-02-26T14:15:17;9.50;99.90
47805;DHT22;33568;45.286;9.900;2024-02-26T14:17:43;9.50;99.90
47805;DHT22;33568;45.286;9.900;2024-02-26T14:20:10;9.50;99.90
47805;DHT22;33568;45.286;9.900;2024-02-26T14:22:36;9.40;99.90
47805;DHT22;33568;45.286;9.900;2024-02-26T14:25:03;9.50;99.90
47805;DHT22;33568;45.286;9.900;2024-02-26T14:27:32;9.40;99.90
47805;DHT22;33568;45.286;9.900;2024-02-26T14:29:59;9.50;99.90
47805;DHT22;33568;45.286;9.900;2024-02-26T14:32:25;9.50;99.90
47805;DHT22;33568;45.286;9.900;2024-02-26T14:34:51;9.60;99.90
47805;DHT22;33568;45.286;9.900;2024-02-26T14:37:18;9.60;99.90
47805;DHT22;33568;45.286;9.900;2024-02-26T14:39:44;9.50;99.90
47805;DHT22;33568;45.286;9.900;2024-02-26T14:42:11;9.60;99.90
47805;DHT22;33568;45.286;9.900;2024-02-26T14:44:37;9.50;99.90
47805;DHT22;33568;45.286;9.900;2024-02-26T14:47:03;9.60;99.90
47805;DHT22;33568;45.286;9.900;2024-02-26T14:49:30;9.50;99.90
47805;DHT22;33568;45.286;9.900;2024-02-26T14:51:57;9.50;99.90
47805;DHT22;33568;45.286;9.900;2024-02-26T14:54:24;9.60;99.90
47805;DHT22;33568;45.286;9.900;2024-02-26T14:56:50;9.50;99.90
47805;DHT22;33568;45.286;9.900;2024-02-26T14:59:16;9.60;99.90
47805;DHT22;33568;45.286;9.900;2024-02-26T15:01:43;9.60;99.90
47805;DHT22;33568;45.286;9.900;2024-02-26T15:04:09;9.60;99.90
47805;DHT22;33568;45.286;9.900;2024-02-26T15:06:38;9.60;99.90
47805;DHT22;33568;45.286;9.900;2024-02-26T15:09:06;9.70;99.90
47805;DHT22;33568;45.286;9.900;2024-02-26T15:11:33;9.70;99.90
47805;DHT22;33568;45.286;9.900;2024-02-26T15:13:59;9.70;99.90
47805;DHT22;33568;45.286;9.900;2024-02-26T15:16:26;9.70;99.90
47805;DHT22;33568;45.286;9.900;2024-02-26T15:18:52;9.70;99.90
47805;DHT22;33568;45.286;9.900;2024-02-26T15:21:18;9.70;99.90
47805;DHT22;33568;45.286;9.900;2024-02-26T15:23:45;9.80;99.90
47805;DHT22;33568;45.286;9.900;2024-02-26T15:26:11;9.80;99.90
47805;DHT22;33568;45.286;9.900;2024-02-26T15:28:38;9.80;99.90
47805;DHT22;33568;45.286;9.900;2024-02-26T15:31:04;9.70;99.90
47805;DHT22;33568;45.286;9.900;2024-02-26T15:33:31;9.70;99.90
47805;DHT22;33568;45.286;9.900;2024-02-26T15:35:57;9.70;99.90
47805;DHT22;33568;45.286;9.900;2024-02-26T15:38:24;9.70;99.90
47805;DHT22;33568;45.286;9.900;2024-02-26T15:40:50;9.80;99.90
47805;DHT22;33568;45.286;9.900;2024-02-26T15:43:16;9.80;99.90
47805;DHT22;33568;45.286;9.900;2024-02-26T15:45:45;9.80;99.90
47805;DHT22;33568;45.286;9.900;2024-02-26T15:48:12;9.80;99.90
47805;DHT22;33568;45.286;9.900;2024-02-26T15:50:38;9.70;99.90
47805;DHT22;33568;45.286;9.900;2024-02-26T15:53:08;9.70;99.90